createdAt,value
2019-05-26T00:00:28.551Z,89.18
2019-05-26T00:02:58.791Z,90.51
2019-05-26T00:05:28.961Z,90.29
2019-05-26T00:07:59.195Z,89.03
2019-05-26T00:10:29.336Z,89.47
2019-05-26T00:12:59.468Z,89.82
2019-05-26T00:15:29.698Z,90.83
2019-05-26T00:17:59.879Z,90.50
2019-05-26T00:20:30.069Z,90.77
2019-05-26T00:23:00.232Z,91.03
2019-05-26T00:25:30.444Z,90.62
2019-05-26T00:28:00.721Z,91.24
2019-05-26T00:30:30.800Z,91.07
2019-05-26T00:33:01.001Z,90.95
2019-05-26T00:35:31.282Z,91.26
2019-05-26T00:38:01.546Z,90.68
2019-05-26T00:40:31.741Z,91.47
2019-05-26T00:43:01.916Z,91.85
2019-05-26T00:45:32.157Z,91.70
2019-05-26T00:48:02.387Z,90.99
2019-05-26T00:50:32.536Z,91.11
2019-05-26T00:53:02.738Z,92.03
2019-05-26T00:55:33.073Z,92.11
2019-05-26T00:58:04.375Z,91.32
2019-05-26T01:00:41.890Z,92.28
2019-05-26T01:03:12.266Z,92.73
2019-05-26T01:05:42.505Z,92.70
2019-05-26T01:08:12.746Z,92.87
2019-05-26T01:10:42.939Z,92.62
2019-05-26T01:13:13.134Z,92.59
2019-05-26T01:15:43.522Z,92.84
2019-05-26T01:18:13.786Z,92.63
2019-05-26T01:20:44.009Z,92.99
2019-05-26T01:23:14.184Z,93.21
2019-05-26T01:25:44.727Z,93.50
2019-05-26T01:28:15.000Z,93.47
2019-05-26T01:30:45.428Z,93.19
2019-05-26T01:33:15.661Z,93.34
2019-05-26T01:35:46.854Z,92.94
2019-05-26T01:38:24.101Z,93.43
2019-05-26T01:40:51.964Z,93.20
2019-05-26T01:43:22.173Z,92.39
2019-05-26T01:45:52.301Z,91.59
2019-05-26T01:48:22.501Z,91.85
2019-05-26T01:50:52.724Z,92.23
2019-05-26T01:53:23.004Z,92.86
2019-05-26T01:55:53.232Z,91.62
2019-05-26T01:58:23.471Z,92.00
2019-05-26T02:00:55.767Z,92.70
2019-05-26T02:03:27.009Z,92.53
2019-05-26T02:05:57.298Z,93.11
2019-05-26T02:08:38.844Z,93.03
2019-05-26T02:10:59.502Z,93.36
2019-05-26T02:13:29.653Z,93.49
2019-05-26T02:15:59.909Z,93.55
2019-05-26T02:18:31.728Z,93.26
2019-05-26T02:21:01.851Z,93.57
2019-05-26T02:23:32.053Z,92.98
2019-05-26T02:26:02.226Z,93.12
2019-05-26T02:28:32.557Z,92.69
2019-05-26T02:31:02.762Z,93.01
2019-05-26T02:33:32.978Z,92.26
2019-05-26T02:36:03.130Z,92.63
2019-05-26T02:38:35.782Z,91.65
2019-05-26T02:41:06.256Z,92.10
2019-05-26T02:43:36.405Z,91.78
2019-05-26T02:46:06.720Z,91.29
2019-05-26T02:48:36.908Z,91.71
2019-05-26T02:51:08.064Z,90.87
2019-05-26T02:53:39.826Z,91.39
2019-05-26T02:56:10.032Z,91.38
2019-05-26T02:58:40.855Z,91.13
2019-05-26T03:01:11.081Z,90.31
2019-05-26T03:03:41.291Z,90.92
2019-05-26T03:06:13.049Z,90.63
2019-05-26T03:08:44.851Z,90.69
2019-05-26T03:11:16.345Z,90.40
2019-05-26T03:13:48.681Z,90.47
2019-05-26T03:16:21.229Z,90.51
2019-05-26T03:18:53.150Z,90.19
2019-05-26T03:21:25.073Z,90.17
2019-05-26T03:23:55.236Z,91.03
2019-05-26T03:26:28.391Z,90.87
2019-05-26T03:28:58.531Z,90.85
2019-05-26T03:31:28.736Z,90.57
2019-05-26T03:33:58.875Z,91.09
2019-05-26T03:36:29.046Z,91.15
2019-05-26T03:38:59.304Z,90.79
2019-05-26T03:41:29.522Z,90.87
2019-05-26T03:43:59.813Z,91.08
2019-05-26T03:46:30.014Z,91.15
2019-05-26T03:49:00.210Z,91.37
2019-05-26T03:51:30.364Z,91.33
2019-05-26T03:54:00.533Z,91.64
2019-05-26T03:56:30.904Z,91.29
2019-05-26T03:59:01.120Z,91.64
2019-05-26T04:01:31.314Z,91.52
2019-05-26T04:04:01.503Z,91.22
2019-05-26T04:06:31.672Z,91.18
2019-05-26T04:09:01.832Z,90.54
2019-05-26T04:11:33.231Z,90.42
2019-05-26T04:14:03.304Z,91.61
2019-05-26T04:16:33.427Z,91.32
2019-05-26T04:19:04.422Z,90.91
2019-05-26T04:21:34.540Z,91.69
2019-05-26T04:24:04.676Z,91.71
2019-05-26T04:26:34.883Z,91.69
2019-05-26T04:29:05.158Z,92.10
2019-05-26T04:31:35.312Z,91.63
2019-05-26T04:34:05.576Z,91.42
2019-05-26T04:36:36.680Z,91.88
2019-05-26T04:39:07.761Z,91.76
2019-05-26T04:41:38.047Z,91.41
2019-05-26T04:44:10.573Z,91.43
2019-05-26T04:46:40.833Z,91.61
2019-05-26T04:49:11.017Z,91.63
2019-05-26T04:51:41.177Z,91.79
2019-05-26T04:54:11.378Z,91.51
2019-05-26T04:56:41.573Z,91.61
2019-05-26T04:59:11.792Z,90.75
2019-05-26T05:01:41.976Z,91.20
2019-05-26T05:04:12.154Z,90.79
2019-05-26T05:06:42.410Z,90.81
2019-05-26T05:09:12.540Z,90.27
2019-05-26T05:11:42.785Z,89.97
2019-05-26T05:14:12.945Z,89.90
2019-05-26T05:16:43.183Z,89.30
2019-05-26T05:19:13.432Z,89.57
2019-05-26T05:21:43.610Z,89.09
2019-05-26T05:24:13.807Z,88.46
2019-05-26T05:26:43.946Z,88.47
2019-05-26T05:29:14.144Z,88.33
2019-05-26T05:31:44.365Z,88.10
2019-05-26T05:34:14.541Z,87.93
2019-05-26T05:36:44.719Z,87.32
2019-05-26T05:39:14.824Z,87.05
2019-05-26T05:41:45.086Z,86.67
2019-05-26T05:44:15.240Z,86.55
2019-05-26T05:46:45.382Z,86.05
2019-05-26T05:49:15.513Z,85.42
2019-05-26T05:51:45.742Z,85.11
2019-05-26T05:54:15.877Z,84.67
2019-05-26T05:56:46.114Z,84.77
2019-05-26T05:59:16.327Z,83.85
2019-05-26T06:01:46.596Z,83.73
2019-05-26T06:04:16.926Z,83.67
2019-05-26T06:06:47.305Z,83.35
2019-05-26T06:09:17.586Z,83.33
2019-05-26T06:11:47.841Z,83.41
2019-05-26T06:14:18.049Z,83.16
2019-05-26T06:16:48.193Z,83.42
2019-05-26T06:19:18.594Z,83.40
2019-05-26T06:21:48.804Z,83.16
2019-05-26T06:24:19.106Z,83.22
2019-05-26T06:26:49.381Z,82.94
2019-05-26T06:29:19.774Z,83.00
2019-05-26T06:31:50.329Z,82.70
2019-05-26T06:34:20.602Z,83.13
2019-05-26T06:36:52.385Z,82.25
2019-05-26T06:39:22.504Z,82.30
2019-05-26T06:41:54.372Z,81.67
2019-05-26T06:44:24.595Z,81.32
2019-05-26T06:47:25.441Z,81.45
2019-05-26T06:50:51.239Z,80.98
2019-05-26T06:53:44.265Z,80.95
2019-05-26T06:56:14.528Z,80.13
2019-05-26T06:58:44.744Z,80.27
2019-05-26T07:01:15.932Z,79.75
2019-05-26T07:03:48.133Z,79.96
2019-05-26T07:06:18.370Z,80.25
2019-05-26T07:08:48.526Z,80.23
2019-05-26T07:11:19.357Z,79.86
2019-05-26T07:13:49.602Z,79.68
2019-05-26T07:16:36.506Z,80.07
2019-05-26T07:18:51.645Z,80.29
2019-05-26T07:21:23.477Z,80.42
2019-05-26T07:23:57.766Z,80.90
2019-05-26T07:26:31.070Z,79.96
2019-05-26T07:29:01.248Z,80.13
2019-05-26T07:31:32.343Z,80.58
2019-05-26T07:34:02.678Z,80.55
2019-05-26T07:36:32.921Z,80.09
2019-05-26T07:39:03.113Z,80.55
2019-05-26T07:41:36.471Z,79.30
2019-05-26T07:44:06.689Z,79.63
2019-05-26T07:47:16.874Z,79.67
2019-05-26T07:49:54.971Z,78.67
2019-05-26T07:52:25.190Z,78.47
2019-05-26T07:54:55.503Z,78.64
2019-05-26T07:57:25.688Z,77.37
2019-05-26T07:59:57.641Z,78.00
2019-05-26T08:02:31.438Z,77.80
2019-05-26T08:05:01.622Z,76.38
2019-05-26T08:07:32.039Z,76.24
2019-05-26T08:10:02.320Z,75.71
2019-05-26T08:12:33.632Z,75.99
2019-05-26T08:15:03.772Z,75.78
2019-05-26T08:17:34.119Z,75.00
2019-05-26T08:20:04.967Z,74.25
2019-05-26T08:22:35.304Z,74.63
2019-05-26T08:25:05.817Z,73.84
2019-05-26T08:27:36.083Z,74.02
2019-05-26T08:30:07.667Z,73.88
2019-05-26T08:32:40.646Z,73.32
2019-05-26T08:35:16.239Z,72.61
2019-05-26T08:37:53.881Z,72.62
2019-05-26T08:40:24.353Z,72.26
2019-05-26T08:46:33.662Z,74.39
2019-05-26T08:49:03.897Z,73.23
2019-05-26T08:51:35.694Z,72.16
2019-05-26T08:54:06.059Z,72.43
2019-05-26T08:56:36.258Z,72.39
2019-05-26T08:59:06.606Z,71.15
2019-05-26T09:01:38.034Z,70.88
2019-05-26T09:04:08.251Z,70.59
2019-05-26T09:06:38.495Z,69.76
2019-05-26T09:09:08.672Z,69.94
2019-05-26T09:11:38.951Z,69.75
2019-05-26T09:14:09.266Z,68.80
2019-05-26T09:16:41.162Z,68.62
2019-05-26T09:19:12.591Z,68.24
2019-05-26T09:21:42.859Z,67.48
2019-05-26T09:24:13.057Z,68.18
2019-05-26T09:26:46.481Z,68.38
2019-05-26T09:29:16.649Z,67.01
2019-05-26T09:31:46.919Z,67.43
2019-05-26T09:34:17.273Z,68.05
2019-05-26T09:36:47.619Z,67.72
2019-05-26T09:39:17.728Z,67.49
2019-05-26T09:41:48.535Z,67.62
2019-05-26T09:44:18.749Z,67.75
2019-05-26T09:46:48.987Z,67.91
2019-05-26T09:49:19.163Z,68.41
2019-05-26T09:51:50.471Z,69.41
2019-05-26T09:54:20.696Z,69.43
2019-05-26T09:56:50.889Z,70.21
2019-05-26T09:59:21.074Z,70.40
2019-05-26T10:01:53.019Z,70.65
2019-05-26T10:04:24.810Z,70.95
2019-05-26T10:06:54.962Z,71.47
2019-05-26T10:09:25.231Z,70.81
2019-05-26T10:11:55.496Z,70.60
2019-05-26T10:14:25.811Z,71.48
2019-05-26T10:16:56.024Z,71.10
2019-05-26T10:19:27.422Z,70.69
2019-05-26T10:21:58.684Z,70.44
2019-05-26T10:24:28.919Z,69.77
2019-05-26T10:26:59.228Z,70.04
2019-05-26T10:29:29.500Z,70.62
2019-05-26T10:32:00.070Z,69.43
2019-05-26T10:34:30.275Z,69.97
2019-05-26T10:37:00.465Z,70.12
2019-05-26T10:39:30.688Z,70.22
2019-05-26T10:42:04.235Z,69.59
2019-05-26T10:44:34.164Z,68.21
2019-05-26T10:47:04.366Z,67.81
2019-05-26T10:49:34.589Z,67.87
2019-05-26T10:52:04.834Z,67.34
2019-05-26T10:54:35.147Z,67.05
2019-05-26T10:57:05.489Z,66.63
2019-05-26T10:59:36.810Z,67.05
2019-05-26T11:02:07.248Z,65.98
2019-05-26T11:04:38.281Z,66.48
2019-05-26T11:07:08.569Z,65.86
2019-05-26T11:09:38.770Z,65.92
2019-05-26T11:12:16.787Z,65.97
2019-05-26T11:14:46.980Z,66.41
2019-05-26T11:17:17.199Z,66.15
2019-05-26T11:20:03.566Z,66.92
2019-05-26T11:22:35.267Z,67.36
2019-05-26T11:25:06.277Z,67.84
2019-05-26T11:27:36.496Z,67.96
2019-05-26T11:30:08.571Z,67.49
2019-05-26T11:32:38.788Z,68.96
2019-05-26T11:35:10.076Z,68.86
2019-05-26T11:37:41.210Z,68.94
2019-05-26T11:40:14.962Z,69.02
2019-05-26T11:42:45.398Z,68.87
2019-05-26T11:45:17.535Z,69.43
2019-05-26T11:47:47.842Z,69.29
2019-05-26T11:50:18.427Z,68.98
2019-05-26T11:52:50.410Z,68.44
2019-05-26T11:55:20.849Z,69.12
2019-05-26T11:57:55.517Z,68.58
2019-05-26T12:00:28.284Z,68.12
2019-05-26T12:03:00.452Z,67.85
2019-05-26T12:05:30.375Z,67.91
2019-05-26T12:08:00.526Z,66.87
2019-05-26T12:10:30.768Z,66.22
2019-05-26T12:13:01.043Z,66.04
2019-05-26T12:15:31.500Z,65.97
2019-05-26T12:18:03.564Z,67.36
2019-05-26T12:20:33.766Z,67.71
2019-05-26T12:23:03.987Z,66.99
2019-05-26T12:25:34.170Z,66.41
2019-05-26T12:28:04.409Z,66.91
2019-05-26T12:30:34.992Z,66.64
2019-05-26T12:33:05.228Z,66.67
2019-05-26T12:35:44.350Z,67.24
2019-05-26T12:38:15.142Z,67.13
2019-05-26T12:40:45.579Z,66.81
2019-05-26T12:43:17.620Z,66.97
2019-05-26T12:45:48.098Z,67.24
2019-05-26T12:48:18.347Z,67.62
2019-05-26T12:50:48.594Z,67.48
2019-05-26T12:53:18.836Z,67.41
2019-05-26T12:55:49.123Z,67.24
2019-05-26T12:58:19.304Z,67.29
2019-05-26T13:00:53.864Z,68.83
2019-05-26T13:03:21.403Z,69.42
2019-05-26T13:05:51.609Z,70.62
2019-05-26T13:08:21.760Z,71.80
2019-05-26T13:10:51.895Z,70.78
2019-05-26T13:13:22.050Z,71.12
2019-05-26T13:15:52.264Z,70.84
2019-05-26T13:18:22.454Z,70.44
2019-05-26T13:20:52.654Z,69.33
2019-05-26T13:23:22.839Z,68.20
2019-05-26T13:25:52.978Z,68.54
2019-05-26T13:28:23.146Z,68.95
2019-05-26T13:30:53.298Z,68.68
2019-05-26T13:33:23.454Z,69.43
2019-05-26T13:35:53.594Z,70.40
2019-05-26T13:38:25.364Z,70.83
2019-05-26T13:40:55.504Z,70.49
2019-05-26T13:43:25.756Z,70.83
2019-05-26T13:45:56.000Z,71.68
2019-05-26T13:48:26.178Z,71.88
2019-05-26T13:50:56.423Z,72.02
2019-05-26T13:53:26.693Z,72.37
2019-05-26T13:55:56.850Z,72.32
2019-05-26T13:58:32.625Z,72.47
2019-05-26T14:01:04.463Z,71.90
2019-05-26T14:03:37.604Z,72.13
2019-05-26T14:07:26.188Z,72.32
2019-05-26T14:09:49.575Z,73.25
2019-05-26T14:12:46.322Z,73.60
2019-05-26T14:15:34.922Z,74.25
2019-05-26T14:18:23.570Z,73.32
2019-05-26T14:21:12.401Z,73.28
2019-05-26T14:23:50.483Z,73.66
2019-05-26T14:26:42.571Z,74.09
2019-05-26T14:29:31.357Z,73.56
2019-05-26T14:33:03.785Z,74.78
2019-05-26T14:35:46.119Z,74.08
2019-05-26T14:38:58.370Z,74.53
2019-05-26T14:41:50.575Z,74.74
2019-05-26T14:44:38.587Z,75.09
2019-05-26T14:47:44.742Z,75.09
2019-05-26T14:51:04.567Z,74.61
2019-05-26T14:54:00.884Z,75.02
2019-05-26T14:56:42.228Z,75.47
2019-05-26T14:59:20.767Z,75.89
2019-05-26T15:02:08.899Z,75.46
2019-05-26T15:05:05.638Z,76.16
2019-05-26T15:08:12.487Z,75.88
2019-05-26T15:14:46.527Z,76.04
2019-05-26T15:17:38.620Z,76.10
2019-05-26T15:20:26.698Z,76.30
2019-05-26T15:23:27.947Z,77.25
2019-05-26T15:26:30.945Z,77.28
2019-05-26T15:29:42.987Z,77.66
2019-05-26T15:32:54.697Z,78.06
2019-05-26T15:35:45.030Z,78.17
2019-05-26T15:39:18.035Z,77.82
2019-05-26T15:42:22.259Z,78.56
2019-05-26T15:49:21.699Z,77.96
2019-05-26T15:52:32.803Z,77.80
2019-05-26T15:59:24.766Z,77.74
2019-05-26T16:05:28.283Z,76.09
2019-05-26T16:08:00.070Z,75.67
2019-05-26T16:13:58.425Z,75.96
2019-05-26T16:16:41.367Z,75.59
2019-05-26T16:19:23.049Z,75.50
2019-05-26T16:21:59.102Z,75.20
2019-05-26T16:24:32.804Z,74.64
2019-05-26T16:27:18.758Z,74.05
2019-05-26T16:29:37.829Z,74.75
2019-05-26T16:32:08.049Z,76.01
2019-05-26T16:34:42.161Z,76.33
2019-05-26T16:37:14.566Z,75.41
2019-05-26T16:39:46.116Z,75.15
2019-05-26T16:42:21.925Z,77.98
2019-05-26T16:44:52.152Z,79.72
2019-05-26T16:47:22.355Z,80.03
2019-05-26T16:49:52.611Z,80.83
2019-05-26T16:52:29.346Z,80.35
2019-05-26T16:54:59.336Z,81.00
2019-05-26T16:57:31.429Z,81.64
2019-05-26T17:00:08.024Z,82.71
2019-05-26T17:02:41.272Z,82.41
2019-05-26T17:05:11.678Z,84.44
2019-05-26T17:07:41.943Z,84.93
2019-05-26T17:10:16.216Z,85.37
2019-05-26T17:12:46.420Z,85.42
2019-05-26T17:15:16.998Z,86.39
2019-05-26T17:17:47.266Z,86.42
2019-05-26T17:20:18.327Z,87.47
2019-05-26T17:22:49.060Z,88.60
2019-05-26T17:25:19.264Z,89.69
2019-05-26T17:27:50.548Z,89.84
2019-05-26T17:30:22.242Z,89.88
2019-05-26T17:32:56.097Z,88.83
2019-05-26T17:35:26.333Z,88.83
2019-05-26T17:37:58.210Z,89.22
2019-05-26T17:40:33.908Z,90.16
2019-05-26T17:43:04.317Z,91.29
2019-05-26T17:45:34.550Z,90.43
2019-05-26T17:48:06.439Z,92.25
2019-05-26T17:50:39.141Z,92.98
2019-05-26T17:53:09.402Z,94.72
2019-05-26T17:55:40.580Z,95.04
2019-05-26T17:58:34.461Z,94.81
2019-05-26T18:01:17.265Z,95.17
2019-05-26T18:03:47.674Z,95.24
2019-05-26T18:06:19.828Z,95.34
2019-05-26T18:08:50.005Z,95.71
2019-05-26T18:11:22.871Z,95.85
2019-05-26T18:13:54.350Z,96.07
2019-05-26T18:16:26.497Z,95.99
2019-05-26T18:18:59.517Z,95.95
2019-05-26T18:21:29.672Z,96.18
2019-05-26T18:24:00.796Z,96.59
2019-05-26T18:26:31.006Z,96.75
2019-05-26T18:29:01.246Z,97.21
2019-05-26T18:31:31.397Z,97.68
2019-05-26T18:34:10.834Z,97.58
2019-05-26T18:36:42.575Z,97.38
2019-05-26T18:39:14.975Z,97.31
2019-05-26T18:41:45.208Z,97.27
2019-05-26T18:44:18.287Z,97.60
2019-05-26T18:46:53.353Z,97.62
2019-05-26T18:49:26.304Z,98.26
2019-05-26T18:51:58.192Z,98.33
2019-05-26T18:54:28.384Z,98.48
2019-05-26T18:56:58.551Z,98.60
2019-05-26T18:59:30.188Z,98.97
2019-05-26T19:02:02.527Z,98.93
2019-05-26T19:04:34.317Z,99.10
2019-05-26T19:07:05.659Z,99.49
2019-05-26T19:09:41.076Z,99.43
2019-05-26T19:12:30.442Z,99.42
2019-05-26T19:15:24.851Z,99.28
2019-05-26T19:18:20.292Z,99.16
2019-05-26T19:20:54.285Z,99.46
2019-05-26T19:24:22.302Z,99.44
2019-05-26T19:26:34.666Z,99.35
2019-05-26T19:30:28.571Z,99.56
2019-05-26T19:36:40.195Z,99.46
2019-05-26T19:39:34.957Z,99.39
2019-05-26T19:42:12.578Z,99.33
2019-05-26T19:44:55.799Z,99.24
2019-05-26T19:47:43.112Z,98.94
2019-05-26T19:50:35.109Z,99.00
2019-05-26T19:53:32.455Z,99.25
2019-05-26T19:56:03.161Z,99.68
2019-05-26T19:58:33.464Z,99.55
2019-05-26T20:01:05.593Z,99.49
2019-05-26T20:03:35.787Z,99.81
2019-05-26T20:06:06.313Z,99.71
2019-05-26T20:08:36.614Z,99.53
2019-05-26T20:11:08.703Z,99.39
2019-05-26T20:13:39.051Z,99.63
2019-05-26T20:16:09.270Z,99.80
2019-05-26T20:18:39.494Z,99.89
2019-05-26T20:21:09.664Z,99.97
2019-05-26T20:23:40.042Z,99.95
2019-05-26T20:26:10.258Z,99.92
2019-05-26T20:28:40.494Z,99.88
2019-05-26T20:31:10.726Z,100.00
2019-05-26T20:33:40.918Z,100.00
2019-05-26T20:36:11.155Z,100.00
2019-05-26T20:38:41.377Z,100.00
2019-05-26T20:41:11.642Z,100.00
2019-05-26T20:43:44.580Z,100.00
2019-05-26T20:46:14.786Z,100.00
2019-05-26T20:48:45.069Z,100.00
2019-05-26T20:51:17.261Z,100.00
2019-05-26T20:53:47.351Z,100.00
2019-05-26T20:56:17.526Z,100.00
2019-05-26T20:58:47.950Z,99.97
2019-05-26T21:01:18.146Z,99.97
2019-05-26T21:03:48.409Z,99.92
2019-05-26T21:06:18.658Z,100.00
2019-05-26T21:08:48.838Z,100.00
2019-05-26T21:11:21.540Z,100.00
2019-05-26T21:13:51.730Z,99.91
2019-05-26T21:16:21.929Z,100.00
2019-05-26T21:18:52.907Z,99.97
2019-05-26T21:21:23.072Z,99.79
2019-05-26T21:23:53.231Z,99.67
2019-05-26T21:26:23.369Z,99.78
2019-05-26T21:28:53.679Z,99.85
2019-05-26T21:31:23.889Z,99.88
2019-05-26T21:33:54.277Z,99.79
2019-05-26T21:36:25.473Z,99.52
2019-05-26T21:38:55.699Z,99.73
2019-05-26T21:41:32.745Z,99.88
2019-05-26T21:44:06.410Z,99.46
2019-05-26T21:46:36.612Z,99.43
2019-05-26T21:49:12.143Z,99.35
2019-05-26T21:51:46.104Z,99.17
2019-05-26T21:54:16.395Z,99.38
2019-05-26T21:56:46.704Z,98.98
2019-05-26T21:59:19.438Z,98.72
2019-05-26T22:01:52.293Z,98.11
2019-05-26T22:04:28.518Z,97.38
2019-05-26T22:06:59.091Z,97.18
2019-05-26T22:09:32.796Z,96.56
2019-05-26T22:12:02.991Z,96.56
2019-05-26T22:14:37.270Z,96.76
2019-05-26T22:17:10.545Z,96.07
2019-05-26T22:19:46.591Z,96.02
2019-05-26T22:22:17.607Z,95.92
2019-05-26T22:24:50.302Z,96.50
2019-05-26T22:27:23.649Z,96.16
2019-05-26T22:29:58.316Z,95.46
2019-05-26T22:32:32.577Z,95.44
2019-05-26T22:35:13.954Z,95.72
2019-05-26T22:37:45.816Z,95.30
2019-05-26T22:40:19.469Z,95.22
2019-05-26T22:42:52.559Z,95.92
2019-05-26T22:45:23.009Z,95.73
2019-05-26T22:47:56.324Z,95.53
2019-05-26T22:50:31.960Z,94.46
2019-05-26T22:53:03.920Z,94.27
2019-05-26T22:55:34.068Z,94.04
2019-05-26T22:58:04.249Z,94.01
2019-05-26T23:00:34.387Z,93.96
2019-05-26T23:03:04.582Z,93.77
2019-05-26T23:05:34.767Z,93.53
2019-05-26T23:08:05.098Z,92.53
2019-05-26T23:10:35.251Z,92.78
2019-05-26T23:13:05.425Z,91.26
2019-05-26T23:15:35.706Z,92.23
2019-05-26T23:18:06.655Z,92.21
2019-05-26T23:20:36.839Z,92.49
2019-05-26T23:23:07.062Z,92.70
2019-05-26T23:25:37.301Z,91.57
2019-05-26T23:28:07.510Z,92.09
2019-05-26T23:30:38.788Z,92.71
2019-05-26T23:33:09.175Z,92.79
2019-05-26T23:35:39.393Z,92.39
2019-05-26T23:38:09.567Z,92.47
2019-05-26T23:40:39.947Z,91.59
2019-05-26T23:43:10.098Z,91.92
2019-05-26T23:45:40.282Z,90.94
2019-05-26T23:48:10.532Z,91.32
2019-05-26T23:50:41.073Z,90.72
2019-05-26T23:53:11.280Z,92.10
2019-05-26T23:55:41.439Z,91.49
2019-05-26T23:58:11.627Z,91.72
